Time;durP1;ratioP1;P1;durP2;ratioP2;P2;SDS_P1;SDS_P2;PMS_P1;PMS_P2;Temp;Humidity;BMP_temperature;BMP_pressure;BME280_temperature;BME280_humidity;BME280_pressure;Samples;Min_cycle;Max_cycle;Signal;HPM_P1;HPM_P2
2023/09/16 00:00:45;;;;;;;0.13;0.13;;;;;;;15.32;89.54;100485.94;4995090;28;20185;-76
2023/09/16 00:03:10;;;;;;;3.93;0.63;;;;;;;15.22;90.10;100486.41;4995002;28;20200;-76
2023/09/16 00:05:38;;;;;;;0.00;0.00;;;;;;;15.25;90.83;100485.72;4994011;28;20199;-75
2023/09/16 00:08:05;;;;;;;0.27;0.27;;;;;;;15.16;91.47;100482.25;4995217;28;20235;-75
2023/09/16 00:10:31;;;;;;;0.00;0.00;;;;;;;15.19;91.90;100492.59;4995031;28;20185;-76
2023/09/16 00:12:56;;;;;;;0.00;0.00;;;;;;;15.29;92.57;100502.34;4995030;28;20249;-75
2023/09/16 00:15:22;;;;;;;0.00;0.00;;;;;;;15.41;92.34;100497.66;4995043;28;20666;-75
2023/09/16 00:17:47;;;;;;;0.00;0.00;;;;;;;15.27;92.38;100486.19;4994856;28;20181;-76
2023/09/16 00:20:15;;;;;;;0.00;0.00;;;;;;;15.40;91.91;100496.06;4993534;28;20248;-76
2023/09/16 00:22:44;;;;;;;0.00;0.00;;;;;;;15.36;92.09;100497.09;4994029;28;20717;-76
2023/09/16 00:25:10;;;;;;;0.00;0.00;;;;;;;15.42;92.39;100502.03;4994786;28;20212;-76
2023/09/16 00:27:36;;;;;;;0.00;0.00;;;;;;;15.53;91.76;100504.34;4994832;28;20243;-76
2023/09/16 00:30:05;;;;;;;0.30;0.30;;;;;;;15.26;90.90;100492.84;4994354;28;20215;-75
2023/09/16 00:32:31;;;;;;;0.57;0.57;;;;;;;15.30;90.98;100496.50;4993462;28;20177;-75
2023/09/16 00:34:57;;;;;;;0.10;0.10;;;;;;;15.21;91.11;100495.81;4994652;28;20674;-75
2023/09/16 00:37:23;;;;;;;0.20;0.20;;;;;;;15.15;91.13;100497.16;4994690;28;20193;-75
2023/09/16 00:39:48;;;;;;;0.00;0.00;;;;;;;15.13;91.48;100496.69;4994382;28;20261;-75
2023/09/16 00:42:13;;;;;;;0.67;0.67;;;;;;;15.02;91.74;100492.75;4994414;28;20193;-75
2023/09/16 00:44:39;;;;;;;0.60;0.60;;;;;;;14.86;92.09;100484.34;4994532;28;20216;-74
2023/09/16 00:47:04;;;;;;;0.00;0.00;;;;;;;14.77;92.53;100487.22;4993171;28;20185;-75
2023/09/16 00:49:30;;;;;;;0.00;0.00;;;;;;;14.88;93.10;100488.38;4994409;28;20592;-75
2023/09/16 00:51:59;;;;;;;0.00;0.00;;;;;;;15.09;93.40;100496.59;4994441;28;20227;-76
2023/09/16 00:54:26;;;;;;;0.00;0.00;;;;;;;15.15;93.03;100503.47;4994464;28;20628;-75
2023/09/16 00:56:52;;;;;;;0.00;0.00;;;;;;;15.23;92.77;100503.72;4994250;28;20185;-75
2023/09/16 00:59:22;;;;;;;0.00;0.00;;;;;;;15.27;93.03;100494.44;4993063;28;20196;-76
2023/09/16 01:01:50;;;;;;;0.00;0.00;;;;;;;15.24;93.22;100489.63;4994132;28;20189;-75
2023/09/16 01:04:19;;;;;;;0.00;0.00;;;;;;;15.55;93.12;100500.09;4992886;28;20213;-75
2023/09/16 01:06:46;;;;;;;0.20;0.20;;;;;;;15.27;92.09;100469.66;4992907;28;20188;-75
2023/09/16 01:09:15;;;;;;;0.00;0.00;;;;;;;15.40;92.47;100487.00;4992719;28;20268;-76
2023/09/16 01:11:41;;;;;;;0.00;0.00;;;;;;;15.42;92.61;100493.75;4992910;28;20268;-75
2023/09/16 01:14:07;;;;;;;0.37;0.37;;;;;;;15.36;92.04;100492.41;4993845;28;20392;-75
2023/09/16 01:16:39;;;;;;;0.00;0.00;;;;;;;15.13;91.25;100482.94;4994077;28;20199;-75
2023/09/16 01:19:16;;;;;;;0.97;0.97;;;;;;;14.88;90.94;100471.88;4993674;28;20181;-75
2023/09/16 01:21:42;;;;;;;0.00;0.00;;;;;;;15.02;91.00;100487.25;4993889;28;20185;-75
2023/09/16 01:24:23;;;;;;;0.20;0.20;;;;;;;15.32;90.75;100498.91;4993778;28;20216;-75
2023/09/16 01:26:49;;;;;;;0.10;0.10;;;;;;;15.35;90.46;100499.06;4993699;28;20581;-75
2023/09/16 01:29:16;;;;;;;0.00;0.00;;;;;;;15.28;90.14;100492.47;4993392;28;20268;-75
2023/09/16 01:31:43;;;;;;;0.00;0.00;;;;;;;15.16;90.62;100494.06;4993632;28;20185;-76
2023/09/16 01:34:36;;;;;;;0.00;0.00;;;;;;;15.31;90.67;100498.09;4993056;28;20308;-75
2023/09/16 01:37:03;;;;;;;0.00;0.00;;;;;;;15.23;90.14;100485.25;4984392;28;20255;-75
2023/09/16 01:39:30;;;;;;;0.00;0.00;;;;;;;15.38;90.32;100492.84;4993302;28;20189;-75
2023/09/16 01:41:58;;;;;;;0.00;0.00;;;;;;;15.48;89.84;100492.41;4993371;28;20181;-76
2023/09/16 01:44:24;;;;;;;0.00;0.00;;;;;;;15.55;89.90;100493.78;4992094;28;20324;-76
2023/09/16 01:46:49;;;;;;;0.00;0.00;;;;;;;15.57;89.45;100481.28;4993453;28;20227;-75
2023/09/16 01:49:14;;;;;;;0.00;0.00;;;;;;;15.52;89.03;100481.50;4993202;28;20205;-75
2023/09/16 01:51:40;;;;;;;0.00;0.00;;;;;;;15.46;88.53;100466.34;4992135;28;20768;-75
2023/09/16 01:54:05;;;;;;;0.00;0.00;;;;;;;15.13;89.09;100455.41;4993362;28;20575;-75
2023/09/16 01:56:30;;;;;;;0.00;0.00;;;;;;;15.25;89.37;100469.22;4993173;28;20207;-76
2023/09/16 01:58:56;;;;;;;0.00;0.00;;;;;;;15.15;89.29;100472.38;4992970;28;20557;-76
2023/09/16 02:01:21;;;;;;;0.00;0.00;;;;;;;15.31;90.09;100489.03;4993278;28;20205;-75
2023/09/16 02:03:47;;;;;;;0.00;0.00;;;;;;;15.48;89.65;100495.16;4992746;28;20220;-76
2023/09/16 02:06:12;;;;;;;0.00;0.00;;;;;;;15.50;89.64;100488.50;4992981;28;20185;-76
2023/09/16 02:08:38;;;;;;;0.00;0.00;;;;;;;15.63;89.43;100496.47;4992984;28;20195;-75
2023/09/16 02:11:04;;;;;;;0.00;0.00;;;;;;;15.77;88.87;100496.13;4991464;28;20651;-76
2023/09/16 02:13:31;;;;;;;0.00;0.00;;;;;;;15.71;88.26;100486.47;4991680;28;20205;-76
2023/09/16 02:15:56;;;;;;;0.00;0.00;;;;;;;15.60;87.24;100475.09;4992853;28;20213;-75
2023/09/16 02:18:21;;;;;;;0.00;0.00;;;;;;;15.61;87.21;100481.41;4991640;28;20212;-75
2023/09/16 02:20:47;;;;;;;0.00;0.00;;;;;;;15.47;87.27;100470.69;4991205;28;20264;-75
2023/09/16 02:23:13;;;;;;;0.00;0.00;;;;;;;15.45;88.00;100467.50;4992687;28;20240;-76
2023/09/16 02:25:38;;;;;;;0.00;0.00;;;;;;;15.65;87.94;100485.91;4992851;28;20646;-75
2023/09/16 02:28:04;;;;;;;0.30;0.20;;;;;;;15.59;87.22;100481.75;4992670;28;20243;-76
2023/09/16 02:30:29;;;;;;;0.00;0.00;;;;;;;15.60;87.31;100474.28;4992229;28;20203;-75
2023/09/16 02:32:55;;;;;;;0.00;0.00;;;;;;;15.51;87.37;100470.84;4992628;28;20546;-76
2023/09/16 02:35:20;;;;;;;0.23;0.23;;;;;;;15.40;87.69;100465.78;4991226;28;20287;-76
2023/09/16 02:37:45;;;;;;;0.00;0.00;;;;;;;15.35;87.66;100465.22;4992546;28;20263;-75
2023/09/16 02:40:11;;;;;;;0.00;0.00;;;;;;;15.38;88.04;100478.28;4992362;28;20192;-75
2023/09/16 02:42:36;;;;;;;0.00;0.00;;;;;;;15.24;88.05;100467.59;4991280;28;20228;-75
2023/09/16 02:45:02;;;;;;;0.00;0.00;;;;;;;15.20;88.64;100474.13;4992541;28;20208;-75
2023/09/16 02:47:27;;;;;;;0.00;0.00;;;;;;;15.13;89.32;100469.19;4992282;28;20272;-76
2023/09/16 02:49:52;;;;;;;0.60;0.60;;;;;;;15.08;89.72;100474.91;4992152;28;20192;-75
2023/09/16 02:52:20;;;;;;;0.03;0.03;;;;;;;14.98;90.18;100476.13;4992644;28;20193;-76
2023/09/16 02:54:45;;;;;;;0.20;0.20;;;;;;;14.92;90.75;100483.00;4991090;28;20228;-75
2023/09/16 02:57:11;;;;;;;0.17;0.17;;;;;;;14.72;91.54;100473.66;4992510;28;20654;-76
2023/09/16 02:59:36;;;;;;;0.00;0.00;;;;;;;14.72;92.70;100470.91;4990987;28;20233;-75
2023/09/16 03:02:01;;;;;;;0.00;0.00;;;;;;;14.80;93.29;100466.47;4992328;28;20181;-75
2023/09/16 03:04:27;;;;;;;0.00;0.00;;;;;;;14.74;93.54;100474.09;4992269;28;20741;-75
2023/09/16 03:06:53;;;;;;;0.00;0.00;;;;;;;14.69;93.66;100462.53;4992375;28;20201;-76
2023/09/16 03:09:19;;;;;;;0.00;0.00;;;;;;;14.63;93.90;100464.69;4992155;28;20181;-75
2023/09/16 03:11:45;;;;;;;0.00;0.00;;;;;;;14.84;93.81;100476.44;4992324;28;20181;-75
2023/09/16 03:14:10;;;;;;;0.00;0.00;;;;;;;14.73;93.81;100464.25;4988453;28;20201;-76
2023/09/16 03:16:39;;;;;;;0.00;0.00;;;;;;;14.83;93.15;100469.34;4992252;28;20177;-77
2023/09/16 03:19:04;;;;;;;0.00;0.00;;;;;;;15.01;93.03;100486.47;4991684;28;20530;-76
2023/09/16 03:21:30;;;;;;;0.00;0.00;;;;;;;15.03;92.47;100477.88;4991913;28;20193;-76
2023/09/16 03:23:55;;;;;;;0.00;0.00;;;;;;;15.03;92.41;100478.66;4990231;28;20205;-75
2023/09/16 03:26:21;;;;;;;0.00;0.00;;;;;;;15.07;91.69;100468.59;4992225;28;20223;-76
2023/09/16 03:28:46;;;;;;;0.00;0.00;;;;;;;15.06;91.37;100472.50;4990710;28;20268;-75
2023/09/16 03:31:12;;;;;;;0.00;0.00;;;;;;;15.02;91.15;100460.56;4991949;28;20193;-77
2023/09/16 03:33:37;;;;;;;0.00;0.00;;;;;;;15.14;91.33;100468.84;4992050;28;20204;-76
2023/09/16 03:36:06;;;;;;;0.00;0.00;;;;;;;15.21;91.08;100473.78;4992102;28;20242;-76
2023/09/16 03:38:33;;;;;;;0.00;0.00;;;;;;;15.31;90.59;100480.78;4992062;28;20192;-76
2023/09/16 03:40:59;;;;;;;0.00;0.00;;;;;;;15.05;90.64;100456.34;4991853;28;20189;-76
2023/09/16 03:43:25;;;;;;;0.00;0.00;;;;;;;14.82;91.05;100453.19;4990701;28;20713;-76
2023/09/16 03:45:50;;;;;;;0.00;0.00;;;;;;;14.87;91.42;100463.94;4992049;28;20189;-76
2023/09/16 03:48:15;;;;;;;0.00;0.00;;;;;;;14.95;90.99;100470.53;4992001;28;20186;-76
2023/09/16 03:50:41;;;;;;;0.00;0.00;;;;;;;15.00;91.08;100470.28;4991740;28;20192;-76
2023/09/16 03:53:06;;;;;;;0.70;0.70;;;;;;;15.23;90.25;100474.25;4991866;28;20174;-76
2023/09/16 03:55:32;;;;;;;0.40;0.40;;;;;;;15.36;89.31;100473.13;4991927;28;20185;-75
2023/09/16 03:57:57;;;;;;;0.00;0.00;;;;;;;15.44;88.21;100472.19;4992457;28;20679;-76
2023/09/16 04:00:23;;;;;;;0.00;0.00;;;;;;;15.44;87.79;100461.19;4995110;28;20193;-75
2023/09/16 04:02:48;;;;;;;0.00;0.00;;;;;;;15.52;86.73;100464.19;4993893;28;20693;-76
2023/09/16 04:05:14;;;;;;;0.00;0.00;;;;;;;15.51;86.65;100451.56;4994037;28;20584;-76
2023/09/16 04:07:40;;;;;;;0.00;0.00;;;;;;;15.53;86.57;100452.81;4995200;28;20674;-75
2023/09/16 04:10:09;;;;;;;0.00;0.00;;;;;;;15.24;87.05;100439.28;4994831;28;20181;-75
2023/09/16 04:12:34;;;;;;;0.00;0.00;;;;;;;15.05;87.68;100428.81;4995209;28;20517;-75
2023/09/16 04:15:00;;;;;;;0.00;0.00;;;;;;;15.12;88.02;100442.81;4995135;28;20208;-76
2023/09/16 04:17:26;;;;;;;0.00;0.00;;;;;;;15.25;87.68;100449.94;4993741;28;20191;-75
2023/09/16 04:19:51;;;;;;;0.00;0.00;;;;;;;15.42;87.00;100457.16;4994850;28;20196;-75
2023/09/16 04:22:17;;;;;;;0.00;0.00;;;;;;;15.39;86.61;100442.16;4994900;28;20205;-75
2023/09/16 04:24:42;;;;;;;0.00;0.00;;;;;;;15.45;86.30;100440.75;4994879;28;20614;-75
2023/09/16 04:27:07;;;;;;;0.00;0.00;;;;;;;15.07;87.50;100427.34;4994919;28;20185;-75
2023/09/16 04:29:33;;;;;;;1.03;1.03;;;;;;;15.04;87.29;100422.50;4994555;28;20209;-75
2023/09/16 04:31:58;;;;;;;0.17;0.17;;;;;;;14.88;87.26;100416.84;4994717;28;20189;-75
2023/09/16 04:34:24;;;;;;;0.00;0.00;;;;;;;14.87;87.87;100429.00;4994816;28;20205;-75
2023/09/16 04:36:49;;;;;;;0.00;0.00;;;;;;;14.93;87.98;100437.06;4993557;28;20271;-75
2023/09/16 04:39:16;;;;;;;0.00;0.00;;;;;;;14.70;88.81;100426.44;4994566;28;20181;-75
2023/09/16 04:41:42;;;;;;;0.00;0.00;;;;;;;14.55;90.83;100435.31;4994668;28;20211;-75
2023/09/16 04:44:10;;;;;;;0.00;0.00;;;;;;;14.46;91.68;100431.84;4994482;28;20240;-75
2023/09/16 04:46:36;;;;;;;0.00;0.00;;;;;;;14.60;92.25;100446.09;4994608;28;20181;-76
2023/09/16 04:49:01;;;;;;;0.00;0.00;;;;;;;14.74;91.98;100448.56;4994227;28;20267;-75
2023/09/16 04:51:26;;;;;;;0.00;0.00;;;;;;;14.61;91.45;100435.91;4994392;28;20272;-75
2023/09/16 04:53:54;;;;;;;0.00;0.00;;;;;;;14.67;91.10;100438.13;4994229;28;20285;-76
2023/09/16 04:56:20;;;;;;;0.00;0.00;;;;;;;14.60;91.24;100437.84;4994431;28;20185;-76
2023/09/16 04:58:45;;;;;;;0.00;0.00;;;;;;;14.68;91.13;100438.91;4994282;28;20307;-75
2023/09/16 05:01:12;;;;;;;0.00;0.00;;;;;;;14.76;91.40;100460.84;4992859;28;20188;-75
2023/09/16 05:03:37;;;;;;;0.00;0.00;;;;;;;14.64;91.08;100444.31;4992765;28;20617;-75
2023/09/16 05:06:03;;;;;;;0.00;0.00;;;;;;;14.12;91.97;100422.72;4992678;28;20343;-75
2023/09/16 05:08:28;;;;;;;0.00;0.00;;;;;;;14.16;93.11;100447.59;4994000;28;20192;-76
2023/09/16 05:10:55;;;;;;;0.00;0.00;;;;;;;14.05;93.77;100444.47;4992473;28;20184;-76
2023/09/16 05:13:21;;;;;;;0.00;0.00;;;;;;;14.02;94.18;100442.34;4994047;28;20173;-76
2023/09/16 05:15:47;;;;;;;0.00;0.00;;;;;;;14.28;94.04;100451.22;4992658;28;20177;-76
2023/09/16 05:18:13;;;;;;;0.00;0.00;;;;;;;14.48;93.79;100459.81;4993980;28;20188;-76
2023/09/16 05:20:38;;;;;;;0.00;0.00;;;;;;;14.38;93.04;100452.75;4992376;28;20189;-76
2023/09/16 05:23:04;;;;;;;0.00;0.00;;;;;;;14.06;93.50;100440.56;4993783;28;20292;-76
2023/09/16 05:25:29;;;;;;;0.00;0.00;;;;;;;14.32;93.61;100453.28;4993846;28;20741;-76
2023/09/16 05:27:54;;;;;;;0.00;0.00;;;;;;;14.53;92.94;100465.09;4993739;28;20193;-76
2023/09/16 05:30:20;;;;;;;0.00;0.00;;;;;;;14.65;92.29;100456.91;4993455;28;20200;-76
2023/09/16 05:32:45;;;;;;;0.00;0.00;;;;;;;14.12;92.75;100425.47;4993657;28;20185;-76
2023/09/16 05:35:11;;;;;;;0.00;0.00;;;;;;;14.50;93.32;100458.34;4993554;28;20279;-76
2023/09/16 05:37:36;;;;;;;0.00;0.00;;;;;;;14.26;93.49;100442.50;4993583;28;20193;-75
2023/09/16 05:40:01;;;;;;;0.00;0.00;;;;;;;14.57;93.88;100463.28;4993353;28;20189;-79
2023/09/16 05:42:27;;;;;;;0.00;0.00;;;;;;;14.79;93.12;100462.13;4993337;28;20736;-76
2023/09/16 05:44:52;;;;;;;0.00;0.00;;;;;;;15.02;92.24;100470.75;4992004;28;20220;-76
2023/09/16 05:47:17;;;;;;;0.00;0.00;;;;;;;14.93;91.30;100451.59;4992201;28;20197;-75
2023/09/16 05:49:43;;;;;;;0.00;0.00;;;;;;;14.38;93.09;100439.00;4993138;28;20193;-76
2023/09/16 05:52:08;;;;;;;0.00;0.00;;;;;;;14.29;94.99;100452.81;4993347;28;20654;-76
2023/09/16 05:54:34;;;;;;;0.50;0.50;;;;;;;14.36;95.49;100459.72;4993226;28;20575;-75
2023/09/16 05:56:59;;;;;;;0.00;0.00;;;;;;;14.32;96.31;100456.03;4993217;28;20246;-75
2023/09/16 05:59:24;;;;;;;0.00;0.00;;;;;;;14.40;96.66;100464.22;4992985;28;20558;-75
2023/09/16 06:01:50;;;;;;;0.00;0.00;;;;;;;14.49;96.46;100466.94;4993074;28;20185;-76
2023/09/16 06:04:15;;;;;;;0.00;0.00;;;;;;;14.77;95.98;100483.66;4993048;28;20220;-76
2023/09/16 06:06:40;;;;;;;0.00;0.00;;;;;;;14.76;95.87;100473.78;4989950;28;20574;-77
2023/09/16 06:09:06;;;;;;;0.00;0.00;;;;;;;14.66;95.92;100466.75;4992802;28;20193;-76
2023/09/16 06:11:31;;;;;;;0.00;0.00;;;;;;;14.68;96.51;100469.97;4991643;28;20225;-76
2023/09/16 06:13:56;;;;;;;0.00;0.00;;;;;;;14.84;97.17;100486.66;4992726;28;20263;-76
2023/09/16 06:16:22;;;;;;;0.00;0.00;;;;;;;14.82;97.53;100481.50;4991583;28;20184;-76
2023/09/16 06:18:48;;;;;;;0.00;0.00;;;;;;;14.82;97.84;100475.97;4992777;28;20185;-76
2023/09/16 06:21:15;;;;;;;0.00;0.00;;;;;;;14.84;98.63;100481.16;4992041;28;20526;-76
2023/09/16 06:23:41;;;;;;;0.00;0.00;;;;;;;14.84;99.52;100483.91;4991311;28;20275;-76
2023/09/16 06:26:06;;;;;;;0.93;0.93;;;;;;;15.02;99.31;100479.00;4992875;28;20264;-76
2023/09/16 06:28:33;;;;;;;0.20;0.20;;;;;;;15.09;98.99;100473.75;4992795;28;20199;-76
2023/09/16 06:30:58;;;;;;;0.00;0.00;;;;;;;15.24;98.99;100472.31;4991112;28;20193;-76
2023/09/16 06:33:23;;;;;;;0.10;0.10;;;;;;;15.48;98.56;100486.91;4992636;28;20211;-75
2023/09/16 06:35:49;;;;;;;0.10;0.10;;;;;;;15.35;98.26;100470.72;4992683;28;20196;-75
2023/09/16 06:38:14;;;;;;;0.13;0.13;;;;;;;15.36;97.95;100472.31;4992678;28;20634;-76
2023/09/16 06:40:39;;;;;;;0.00;0.00;;;;;;;15.58;98.35;100490.34;4992329;28;20197;-76
2023/09/16 06:43:05;;;;;;;0.77;0.77;;;;;;;15.51;97.54;100476.34;4992335;28;20223;-76
2023/09/16 06:45:30;;;;;;;0.10;0.10;;;;;;;15.59;96.45;100472.66;4992588;28;20559;-76
2023/09/16 06:47:56;;;;;;;0.00;0.00;;;;;;;15.70;95.83;100473.84;4992474;28;20184;-75
2023/09/16 06:50:21;;;;;;;0.87;0.87;;;;;;;15.76;95.33;100475.22;4992607;28;20209;-75
2023/09/16 06:52:47;;;;;;;0.20;0.20;;;;;;;15.92;94.65;100487.16;4992459;28;20188;-76
2023/09/16 06:55:12;;;;;;;2.37;2.27;;;;;;;16.06;93.56;100484.84;4992330;28;20201;-75
2023/09/16 06:57:37;;;;;;;0.20;0.07;;;;;;;16.15;93.10;100487.44;4992388;28;20617;-76
2023/09/16 07:00:03;;;;;;;0.47;0.47;;;;;;;16.23;92.63;100477.44;4988131;28;20720;-76
2023/09/16 07:02:28;;;;;;;0.00;0.00;;;;;;;16.26;91.51;100469.28;4987863;28;20200;-76
2023/09/16 07:04:55;;;;;;;0.00;0.00;;;;;;;16.50;91.31;100486.91;4990886;28;20681;-76
2023/09/16 07:07:23;;;;;;;0.00;0.00;;;;;;;16.58;90.03;100480.44;4991087;28;20268;-76
2023/09/16 07:09:49;;;;;;;0.30;0.30;;;;;;;16.49;89.66;100477.84;4988094;28;20708;-76
2023/09/16 07:12:15;;;;;;;1.70;1.60;;;;;;;16.47;89.59;100473.78;4992014;28;20224;-74
2023/09/16 07:14:40;;;;;;;0.50;0.50;;;;;;;16.64;89.93;100484.56;4991847;28;20208;-74
2023/09/16 07:17:06;;;;;;;1.53;1.43;;;;;;;16.64;88.88;100471.56;4992166;28;20200;-76
2023/09/16 07:19:33;;;;;;;1.50;0.87;;;;;;;16.85;87.60;100478.84;4991911;28;20185;-75
2023/09/16 07:21:59;;;;;;;0.57;0.57;;;;;;;16.80;87.29;100463.34;4992167;28;20192;-75
2023/09/16 07:24:24;;;;;;;0.00;0.00;;;;;;;16.86;87.01;100469.41;4990818;28;20212;-75
2023/09/16 07:26:50;;;;;;;0.43;0.43;;;;;;;16.94;86.88;100472.03;4991971;28;20189;-75
2023/09/16 07:29:17;;;;;;;0.37;0.10;;;;;;;17.23;86.26;100481.84;4991834;28;20181;-75
2023/09/16 07:31:42;;;;;;;1.13;1.13;;;;;;;17.01;86.86;100471.41;4992419;28;20651;-75
2023/09/16 07:34:08;;;;;;;0.57;0.57;;;;;;;17.07;86.80;100470.00;4995830;28;20757;-75
2023/09/16 07:36:33;;;;;;;0.33;0.33;;;;;;;17.30;87.02;100478.47;4995949;28;20211;-75
2023/09/16 07:38:58;;;;;;;0.00;0.00;;;;;;;17.27;87.09;100479.19;4995639;28;20215;-75
2023/09/16 07:41:24;;;;;;;0.83;0.83;;;;;;;17.34;86.29;100479.34;4995682;28;20189;-75
2023/09/16 07:43:49;;;;;;;0.00;0.00;;;;;;;17.35;86.14;100480.94;4995395;28;20283;-76
2023/09/16 07:46:14;;;;;;;0.00;0.00;;;;;;;17.32;86.21;100476.13;4995700;28;20296;-76
2023/09/16 07:48:40;;;;;;;2.87;2.50;;;;;;;17.02;85.97;100461.97;4995402;28;20193;-76
2023/09/16 07:51:05;;;;;;;0.93;0.93;;;;;;;17.21;86.62;100473.13;4995474;28;20185;-76
2023/09/16 07:53:30;;;;;;;0.00;0.00;;;;;;;17.52;86.60;100485.34;4995518;28;20276;-76
2023/09/16 07:55:55;;;;;;;0.30;0.30;;;;;;;17.62;85.55;100481.22;4990628;28;20189;-76
2023/09/16 07:58:21;;;;;;;0.00;0.00;;;;;;;17.67;84.28;100484.53;4989215;28;20617;-77
2023/09/16 08:00:46;;;;;;;0.00;0.00;;;;;;;17.76;84.69;100487.09;4994892;28;20189;-76
2023/09/16 08:03:11;;;;;;;0.00;0.00;;;;;;;18.02;84.06;100495.63;4995060;28;20237;-76
2023/09/16 08:05:37;;;;;;;1.07;1.07;;;;;;;17.80;83.94;100476.97;4995261;28;20189;-76
2023/09/16 08:08:03;;;;;;;0.00;0.00;;;;;;;18.05;83.89;100502.41;4995052;28;20187;-76
2023/09/16 08:10:28;;;;;;;0.03;0.03;;;;;;;18.18;84.15;100498.34;4994981;28;20216;-76
2023/09/16 08:12:54;;;;;;;0.00;0.00;;;;;;;18.31;83.49;100499.84;4994917;28;20177;-76
2023/09/16 08:15:19;;;;;;;0.63;0.63;;;;;;;18.46;83.51;100503.69;4995032;28;20670;-76
2023/09/16 08:17:44;;;;;;;0.00;0.00;;;;;;;18.60;82.47;100497.66;4994998;28;20192;-76
2023/09/16 08:20:10;;;;;;;0.63;0.63;;;;;;;18.66;81.73;100496.22;4994857;28;20239;-76
2023/09/16 08:22:35;;;;;;;0.07;0.07;;;;;;;18.92;81.08;100496.34;4994940;28;20232;-76
2023/09/16 08:25:04;;;;;;;0.00;0.00;;;;;;;19.24;80.91;100518.31;4994732;28;20681;-76
2023/09/16 08:27:30;;;;;;;0.00;0.00;;;;;;;19.29;79.89;100509.72;4994750;28;20265;-76
2023/09/16 08:29:55;;;;;;;0.63;0.63;;;;;;;19.36;79.48;100514.56;4994447;28;20718;-76
2023/09/16 08:32:23;;;;;;;0.10;0.10;;;;;;;19.29;78.21;100490.31;4994963;28;20177;-76
2023/09/16 08:34:50;;;;;;;0.00;0.00;;;;;;;19.54;78.10;100505.44;4994790;28;20251;-76
2023/09/16 08:37:16;;;;;;;0.30;0.30;;;;;;;19.47;76.91;100491.41;4995113;28;20185;-76
2023/09/16 08:39:41;;;;;;;1.70;0.73;;;;;;;19.46;77.25;100484.28;4994443;28;20546;-76
2023/09/16 08:42:12;;;;;;;0.33;0.33;;;;;;;19.52;78.73;100493.06;4993398;28;20642;-76
2023/09/16 08:44:43;;;;;;;0.67;0.67;;;;;;;19.75;77.91;100488.34;4993892;28;20217;-76
2023/09/16 08:47:32;;;;;;;0.30;0.30;;;;;;;19.71;76.65;100478.38;4994527;28;20189;-76
2023/09/16 08:50:08;;;;;;;0.30;0.30;;;;;;;20.12;76.35;100496.03;4994287;28;20200;-76
2023/09/16 08:52:48;;;;;;;0.47;0.47;;;;;;;20.51;75.12;100499.34;4994414;28;20200;-76
2023/09/16 08:55:14;;;;;;;0.00;0.00;;;;;;;20.76;74.80;100503.22;4994295;28;20208;-76
2023/09/16 08:57:50;;;;;;;0.10;0.10;;;;;;;20.73;73.45;100484.53;4994298;28;20189;-76
2023/09/16 09:00:16;;;;;;;0.00;0.00;;;;;;;20.74;72.66;100463.13;4994151;28;20207;-76
2023/09/16 09:02:43;;;;;;;1.20;1.00;;;;;;;20.52;73.42;100464.84;4993959;28;20204;-76
2023/09/16 09:05:10;;;;;;;0.40;0.30;;;;;;;20.95;73.48;100504.22;4994054;28;20303;-76
2023/09/16 09:07:38;;;;;;;0.17;0.17;;;;;;;21.10;72.84;100478.19;4994121;28;20193;-76
2023/09/16 09:10:04;;;;;;;0.00;0.00;;;;;;;21.33;72.20;100492.75;4992542;28;20199;-76
2023/09/16 09:12:32;;;;;;;0.00;0.00;;;;;;;21.49;72.21;100494.47;4994060;28;20212;-76
2023/09/16 09:15:00;;;;;;;3.60;0.43;;;;;;;21.62;71.56;100479.09;4993737;28;20263;-76
2023/09/16 09:17:26;;;;;;;0.00;0.00;;;;;;;21.53;71.44;100467.47;4993895;28;20185;-77
2023/09/16 09:19:52;;;;;;;0.00;0.00;;;;;;;21.23;72.34;100460.03;4993606;28;20181;-76
2023/09/16 09:22:18;;;;;;;0.00;0.00;;;;;;;21.38;71.38;100445.13;4993782;28;20677;-76
2023/09/16 09:24:43;;;;;;;0.10;0.10;;;;;;;21.22;71.72;100439.00;4992699;28;20740;-76
2023/09/16 09:27:09;;;;;;;0.00;0.00;;;;;;;21.48;71.97;100471.41;4992475;28;20276;-76
2023/09/16 09:29:34;;;;;;;0.33;0.23;;;;;;;21.47;72.12;100458.69;4993690;28;20197;-76
2023/09/16 09:32:00;;;;;;;0.00;0.00;;;;;;;21.72;70.60;100464.47;4993581;28;20678;-76
2023/09/16 09:34:27;;;;;;;0.60;0.60;;;;;;;21.44;70.86;100448.38;4993504;28;20689;-76
2023/09/16 09:36:53;;;;;;;0.73;0.73;;;;;;;21.68;71.14;100469.97;4993458;28;20185;-76
2023/09/16 09:39:18;;;;;;;0.87;0.87;;;;;;;21.95;71.26;100476.13;4993241;28;20252;-76
2023/09/16 09:41:46;;;;;;;0.00;0.00;;;;;;;22.18;70.43;100472.31;4993390;28;20590;-76
2023/09/16 09:44:13;;;;;;;0.03;0.03;;;;;;;22.13;70.44;100464.31;4991924;28;20297;-76
2023/09/16 09:46:40;;;;;;;0.17;0.17;;;;;;;22.09;69.51;100432.91;4993298;28;20181;-76
2023/09/16 09:49:05;;;;;;;0.00;0.00;;;;;;;21.96;69.37;100438.78;4993166;28;20541;-76
2023/09/16 09:51:31;;;;;;;0.00;0.00;;;;;;;22.18;70.34;100447.28;4993336;28;20181;-76
2023/09/16 09:53:57;;;;;;;0.40;0.40;;;;;;;22.18;70.33;100438.94;4993089;28;20208;-76
2023/09/16 09:56:22;;;;;;;0.43;0.43;;;;;;;21.81;70.16;100414.84;4992306;28;20192;-76
2023/09/16 09:58:48;;;;;;;0.70;0.70;;;;;;;21.85;70.61;100412.09;4992977;28;20260;-77
2023/09/16 10:01:15;;;;;;;1.43;1.00;;;;;;;21.85;70.21;100417.66;4992812;28;20200;-76
2023/09/16 10:03:47;;;;;;;0.00;0.00;;;;;;;21.95;70.77;100433.59;4991542;28;20205;-76
2023/09/16 10:06:14;;;;;;;0.53;0.53;;;;;;;22.18;69.67;100420.25;4993134;28;20276;-76
2023/09/16 10:08:40;;;;;;;0.33;0.33;;;;;;;22.22;69.71;100423.84;4992654;28;20201;-77
2023/09/16 10:11:05;;;;;;;0.00;0.00;;;;;;;22.39;69.23;100415.94;4991709;28;20475;-77
2023/09/16 10:13:32;;;;;;;0.00;0.00;;;;;;;22.63;67.61;100426.38;4992757;28;20271;-76
2023/09/16 10:16:00;;;;;;;0.00;0.00;;;;;;;22.50;69.27;100425.13;4991569;28;20200;-76
2023/09/16 10:18:27;;;;;;;0.00;0.00;;;;;;;22.67;68.34;100431.94;4992917;28;20185;-76
2023/09/16 10:20:52;;;;;;;0.10;0.10;;;;;;;22.64;67.15;100407.66;4991351;28;20208;-77
2023/09/16 10:23:18;;;;;;;0.00;0.00;;;;;;;22.94;67.24;100418.50;4992702;28;20618;-77
2023/09/16 10:25:44;;;;;;;0.10;0.10;;;;;;;22.84;66.26;100408.94;4993066;28;20189;-77
2023/09/16 10:28:09;;;;;;;0.00;0.00;;;;;;;22.87;67.00;100416.53;4992571;28;20173;-77
2023/09/16 10:30:36;;;;;;;0.10;0.10;;;;;;;23.19;66.24;100429.69;4992462;28;20194;-77
2023/09/16 10:33:04;;;;;;;0.00;0.00;;;;;;;23.53;66.01;100442.03;4992776;28;20178;-77
2023/09/16 10:35:30;;;;;;;0.00;0.00;;;;;;;23.35;65.33;100405.78;4992691;28;20248;-77
2023/09/16 10:37:59;;;;;;;0.80;0.80;;;;;;;22.91;65.02;100372.72;4992512;28;20208;-77
2023/09/16 10:40:25;;;;;;;0.00;0.00;;;;;;;23.18;64.85;100400.22;4992494;28;20177;-77
2023/09/16 10:42:52;;;;;;;0.20;0.20;;;;;;;23.10;64.71;100388.25;4992245;28;20194;-76
2023/09/16 10:45:18;;;;;;;0.10;0.10;;;;;;;23.27;64.31;100384.66;4992414;28;20206;-77
2023/09/16 10:47:47;;;;;;;1.57;1.47;;;;;;;23.25;64.18;100383.47;4992437;28;20272;-77
2023/09/16 10:50:13;;;;;;;0.57;0.57;;;;;;;23.27;64.06;100381.88;4991071;28;20190;-77
2023/09/16 10:52:44;;;;;;;0.60;0.60;;;;;;;23.48;64.27;100391.44;4992564;28;20755;-77
2023/09/16 10:55:19;;;;;;;0.00;0.00;;;;;;;23.53;63.25;100388.22;4985098;28;20194;-77
2023/09/16 10:57:57;;;;;;;0.00;0.00;;;;;;;23.81;64.07;100404.16;4992369;28;20671;-77
2023/09/16 11:00:24;;;;;;;0.00;0.00;;;;;;;23.80;62.70;100378.25;4992351;28;20181;-77
2023/09/16 11:02:58;;;;;;;0.40;0.40;;;;;;;23.72;62.02;100371.91;4992238;28;20566;-77
2023/09/16 11:05:23;;;;;;;2.60;1.53;;;;;;;24.13;63.12;100415.22;4992319;28;20203;-77
2023/09/16 11:07:49;;;;;;;1.13;1.07;;;;;;;24.07;62.37;100381.34;4994222;28;20194;-77
2023/09/16 11:10:15;;;;;;;0.83;0.73;;;;;;;23.68;61.96;100356.34;4996075;28;20191;-77
2023/09/16 11:12:41;;;;;;;0.60;0.60;;;;;;;23.69;62.16;100364.31;4996118;28;20699;-76
2023/09/16 11:15:08;;;;;;;0.53;0.37;;;;;;;23.78;60.80;100357.53;4996147;28;20666;-77
2023/09/16 11:17:33;;;;;;;0.00;0.00;;;;;;;23.81;61.08;100357.50;4995008;28;20293;-76
2023/09/16 11:20:21;;;;;;;0.70;0.70;;;;;;;24.07;62.00;100367.38;4994562;28;20275;-77